Time,TemperatureF,DewpointF,PressureIn,WindDirection,WindDirectionDegrees,WindSpeedMPH,WindSpeedGustMPH,Humidity,HourlyPrecipIn,Conditions,Clouds,dailyrainin,SolarRadiationWatts/m^2,SoftwareType,DateUTC
2013-09-30 00:02:00,43.0,36.0,-100.00,SSE,157,5.0,12.0,77,0.00,,,0.00,0.000000,,2013-09-30 06:02:00,
2013-09-30 00:12:00,43.0,36.0,-100.00,SSE,157,5.0,12.0,77,0.00,,,0.00,0.000000,,2013-09-30 06:12:00,
2013-09-30 00:21:00,43.0,36.0,-100.00,SSE,157,5.0,12.0,77,0.00,,,0.00,0.000000,,2013-09-30 06:21:00,
2013-09-30 00:52:00,42.0,36.0,-100.00,SW,220,2.0,9.0,78,0.00,,,0.00,0.000000,,2013-09-30 06:52:00,
2013-09-30 01:01:00,42.0,36.0,-100.00,SW,220,2.0,9.0,78,0.00,,,0.00,0.000000,,2013-09-30 07:01:00,
2013-09-30 01:12:00,42.0,36.0,-100.00,SW,220,2.0,9.0,78,0.00,,,0.00,0.000000,,2013-09-30 07:12:00,
2013-09-30 01:53:00,44.0,37.0,-100.00,SSW,211,5.0,8.0,75,-99.99,,,0.00,0.000000,,2013-09-30 07:53:00,
2013-09-30 02:02:00,44.0,37.0,-100.00,SSW,211,5.0,8.0,75,-99.99,,,0.00,0.000000,,2013-09-30 08:02:00,
2013-09-30 02:12:00,44.0,37.0,-100.00,SSW,211,5.0,8.0,75,-99.99,,,0.00,0.000000,,2013-09-30 08:12:00,
2013-09-30 02:21:00,44.0,37.0,-100.00,SSW,211,5.0,8.0,75,-99.99,,,0.00,0.000000,,2013-09-30 08:21:00,
2013-09-30 02:22:00,42.0,36.0,-100.00,SSE,148,2.0,8.0,78,0.00,,,0.00,0.000000,,2013-09-30 08:22:00,
2013-09-30 02:52:00,42.0,36.0,-100.00,SSE,148,2.0,8.0,78,0.00,,,0.00,0.000000,,2013-09-30 08:52:00,
2013-09-30 03:02:00,42.0,36.0,-100.00,SSE,148,2.0,8.0,78,0.00,,,0.00,0.000000,,2013-09-30 09:02:00,
2013-09-30 03:11:00,42.0,36.0,-100.00,SSE,148,2.0,8.0,78,0.00,,,0.00,0.000000,,2013-09-30 09:11:00,
2013-09-30 03:22:00,57.0,38.0,-100.00,West,269,14.0,23.0,49,0.00,,,0.00,0.000000,,2013-09-30 09:22:00,
2013-09-30 04:22:00,55.0,37.0,-100.00,ESE,112,2.0,21.0,50,-99.99,,,0.00,0.000000,,2013-09-30 10:22:00,
2013-09-30 04:53:00,55.0,37.0,-100.00,ESE,112,2.0,21.0,50,-99.99,,,0.00,0.000000,,2013-09-30 10:53:00,
2013-09-30 05:02:00,55.0,37.0,-100.00,ESE,112,2.0,21.0,50,-99.99,,,0.00,0.000000,,2013-09-30 11:02:00,
2013-09-30 05:12:00,55.0,37.0,-100.00,ESE,112,2.0,21.0,50,-99.99,,,0.00,0.000000,,2013-09-30 11:12:00,
2013-09-30 05:22:00,55.0,37.0,-100.00,North,10,2.0,7.0,50,0.00,,,0.00,0.000000,,2013-09-30 11:22:00,
2013-09-30 05:52:00,55.0,37.0,-100.00,North,10,2.0,7.0,50,0.00,,,0.00,0.000000,,2013-09-30 11:52:00,
2013-09-30 06:02:00,55.0,37.0,-100.00,North,10,2.0,7.0,50,0.00,,,0.00,0.000000,,2013-09-30 12:02:00,
2013-09-30 06:12:00,55.0,37.0,-100.00,North,10,2.0,7.0,50,0.00,,,0.00,0.000000,,2013-09-30 12:12:00,
2013-09-30 06:22:00,52.0,38.0,-100.00,SSE,168,2.0,11.0,59,0.00,,,0.00,0.000000,,2013-09-30 12:22:00,
2013-09-30 06:52:00,52.0,38.0,-100.00,SSE,168,2.0,11.0,59,0.00,,,0.00,0.000000,,2013-09-30 12:52:00,
2013-09-30 07:01:00,52.0,38.0,-100.00,SSE,168,2.0,11.0,59,0.00,,,0.00,0.000000,,2013-09-30 13:01:00,
2013-09-30 07:11:00,52.0,38.0,-100.00,SSE,168,2.0,11.0,59,0.00,,,0.00,0.000000,,2013-09-30 13:11:00,
2013-09-30 07:22:00,53.0,41.0,-100.00,South,174,4.0,8.0,63,0.00,,,0.00,0.000000,,2013-09-30 13:22:00,
2013-09-30 07:52:00,53.0,41.0,-100.00,South,174,4.0,8.0,63,0.00,,,0.00,0.000000,,2013-09-30 13:52:00,
2013-09-30 08:01:00,53.0,41.0,-100.00,South,174,4.0,8.0,63,0.00,,,0.00,0.000000,,2013-09-30 14:01:00,
2013-09-30 08:11:00,53.0,41.0,-100.00,South,174,4.0,8.0,63,0.00,,,0.00,0.000000,,2013-09-30 14:11:00,
2013-09-30 08:22:00,52.0,41.0,-100.00,NNW,344,4.0,10.0,65,0.00,,,0.00,24.000000,,2013-09-30 14:22:00,
2013-09-30 08:53:00,52.0,41.0,-100.00,NNW,344,4.0,10.0,65,0.00,,,0.00,24.000000,,2013-09-30 14:53:00,
2013-09-30 09:02:00,52.0,41.0,-100.00,NNW,344,4.0,10.0,65,0.00,,,0.00,24.000000,,2013-09-30 15:02:00,
2013-09-30 09:11:00,52.0,41.0,-100.00,NNW,344,4.0,10.0,65,0.00,,,0.00,24.000000,,2013-09-30 15:11:00,
2013-09-30 09:22:00,61.0,44.0,-100.00,NE,49,5.0,11.0,54,0.00,,,0.00,168.000000,,2013-09-30 15:22:00,
2013-09-30 10:14:00,61.0,44.0,-100.00,NE,49,5.0,11.0,54,0.00,,,0.00,168.000000,,2013-09-30 16:14:00,
2013-09-30 10:22:00,65.0,39.0,-100.00,SW,231,15.0,31.0,39,0.00,,,0.00,350.000000,,2013-09-30 16:22:00,
2013-09-30 11:13:00,65.0,39.0,-100.00,SW,231,15.0,31.0,39,0.00,,,0.00,350.000000,,2013-09-30 17:13:00,
2013-09-30 11:53:00,67.0,39.0,-100.00,SW,233,20.0,38.0,36,0.00,,,0.00,564.000000,,2013-09-30 17:53:00,
2013-09-30 12:01:00,67.0,39.0,-100.00,SW,233,20.0,38.0,36,0.00,,,0.00,564.000000,,2013-09-30 18:01:00,
2013-09-30 12:12:00,67.0,39.0,-100.00,SW,233,20.0,38.0,36,0.00,,,0.00,564.000000,,2013-09-30 18:12:00,
2013-09-30 12:22:00,49.0,37.0,-100.00,NW,307,33.0,50.0,63,-99.99,,,0.00,745.000000,,2013-09-30 18:22:00,
2013-09-30 12:53:00,49.0,37.0,-100.00,NW,307,33.0,50.0,63,-99.99,,,0.00,745.000000,,2013-09-30 18:53:00,
2013-09-30 13:02:00,49.0,37.0,-100.00,NW,307,33.0,50.0,63,-99.99,,,0.00,745.000000,,2013-09-30 19:02:00,
2013-09-30 13:12:00,49.0,37.0,-100.00,NW,307,33.0,50.0,63,-99.99,,,0.00,745.000000,,2013-09-30 19:12:00,
2013-09-30 13:22:00,42.0,37.0,-100.00,WNW,297,26.0,44.0,83,0.01,,,0.01,216.000000,,2013-09-30 19:22:00,
2013-09-30 14:12:00,42.0,37.0,-100.00,WNW,297,26.0,44.0,83,0.01,,,0.01,216.000000,,2013-09-30 20:12:00,
2013-09-30 14:22:00,47.0,41.0,-100.00,WNW,297,12.0,37.0,78,0.13,,,0.14,148.000000,,2013-09-30 20:22:00,
2013-09-30 14:53:00,47.0,41.0,-100.00,WNW,297,12.0,37.0,78,0.13,,,0.14,148.000000,,2013-09-30 20:53:00,
2013-09-30 15:02:00,47.0,41.0,-100.00,WNW,297,12.0,37.0,78,0.13,,,0.14,148.000000,,2013-09-30 21:02:00,
2013-09-30 15:11:00,47.0,41.0,-100.00,WNW,297,12.0,37.0,78,0.13,,,0.14,148.000000,,2013-09-30 21:11:00,
2013-09-30 15:22:00,50.0,41.0,-100.00,North,353,4.0,13.0,70,0.00,,,0.14,274.000000,,2013-09-30 21:22:00,
2013-09-30 15:54:00,50.0,41.0,-100.00,North,353,4.0,13.0,70,0.00,,,0.14,274.000000,,2013-09-30 21:54:00,
2013-09-30 16:03:00,50.0,41.0,-100.00,North,353,4.0,13.0,70,0.00,,,0.14,274.000000,,2013-09-30 22:03:00,
2013-09-30 16:13:00,50.0,41.0,-100.00,North,353,4.0,13.0,70,0.00,,,0.14,274.000000,,2013-09-30 22:13:00,
2013-09-30 16:22:00,52.0,39.0,-100.00,WNW,298,7.0,16.0,62,0.00,,,0.14,176.000000,,2013-09-30 22:22:00,
2013-09-30 16:54:00,52.0,39.0,-100.00,WNW,298,7.0,16.0,62,0.00,,,0.14,176.000000,,2013-09-30 22:54:00,
2013-09-30 17:03:00,52.0,39.0,-100.00,WNW,298,7.0,16.0,62,0.00,,,0.14,176.000000,,2013-09-30 23:03:00,
2013-09-30 17:12:00,52.0,39.0,-100.00,WNW,298,7.0,16.0,62,0.00,,,0.14,176.000000,,2013-09-30 23:12:00,
2013-09-30 17:22:00,50.0,36.0,-100.00,NNW,328,18.0,24.0,59,0.00,,,0.14,190.000000,,2013-09-30 23:22:00,
2013-09-30 17:54:00,50.0,36.0,-100.00,NNW,328,18.0,24.0,59,0.00,,,0.14,190.000000,,2013-09-30 23:54:00,
2013-09-30 18:02:00,50.0,36.0,-100.00,NNW,328,18.0,24.0,59,0.00,,,0.14,190.000000,,2013-10-01 00:02:00,
2013-09-30 18:12:00,50.0,36.0,-100.00,NNW,328,18.0,24.0,59,0.00,,,0.14,190.000000,,2013-10-01 00:12:00,
2013-09-30 18:52:00,50.0,34.0,-100.00,NW,308,11.0,22.0,54,0.00,,,0.14,75.000000,,2013-10-01 00:52:00,
2013-09-30 19:02:00,50.0,34.0,-100.00,NW,308,11.0,22.0,54,0.00,,,0.14,75.000000,,2013-10-01 01:02:00,
2013-09-30 19:12:00,50.0,34.0,-100.00,NW,308,11.0,22.0,54,0.00,,,0.14,75.000000,,2013-10-01 01:12:00,
2013-09-30 19:21:00,50.0,34.0,-100.00,NW,308,11.0,22.0,54,0.00,,,0.14,75.000000,,2013-10-01 01:21:00,
2013-09-30 19:22:00,48.0,30.0,-100.00,WNW,285,10.0,21.0,49,0.00,,,0.14,12.000000,,2013-10-01 01:22:00,
2013-09-30 19:52:00,48.0,30.0,-100.00,WNW,285,10.0,21.0,49,0.00,,,0.14,12.000000,,2013-10-01 01:52:00,
2013-09-30 20:02:00,48.0,30.0,-100.00,WNW,285,10.0,21.0,49,0.00,,,0.14,12.000000,,2013-10-01 02:02:00,
2013-09-30 20:12:00,48.0,30.0,-100.00,WNW,285,10.0,21.0,49,0.00,,,0.14,12.000000,,2013-10-01 02:12:00,
2013-09-30 20:22:00,48.0,27.0,-100.00,NW,305,15.0,23.0,44,0.00,,,0.14,0.000000,,2013-10-01 02:22:00,
2013-09-30 20:52:00,48.0,27.0,-100.00,NW,305,15.0,23.0,44,0.00,,,0.14,0.000000,,2013-10-01 02:52:00,
2013-09-30 21:02:00,48.0,27.0,-100.00,NW,305,15.0,23.0,44,0.00,,,0.14,0.000000,,2013-10-01 03:02:00,
2013-09-30 21:12:00,48.0,27.0,-100.00,NW,305,15.0,23.0,44,0.00,,,0.14,0.000000,,2013-10-01 03:12:00,
2013-09-30 21:22:00,48.0,29.0,-100.00,WNW,287,12.0,20.0,47,0.00,,,0.14,0.000000,,2013-10-01 03:22:00,
2013-09-30 21:55:00,48.0,29.0,-100.00,WNW,287,12.0,20.0,47,0.00,,,0.14,0.000000,,2013-10-01 03:55:00,
2013-09-30 22:04:00,48.0,29.0,-100.00,WNW,287,12.0,20.0,47,0.00,,,0.14,0.000000,,2013-10-01 04:04:00,
2013-09-30 22:14:00,48.0,29.0,-100.00,WNW,287,12.0,20.0,47,0.00,,,0.14,0.000000,,2013-10-01 04:14:00,